Time;durP1;ratioP1;P1;durP2;ratioP2;P2;SDS_P1;SDS_P2;PMS_P1;PMS_P2;Temp;Humidity;BMP_temperature;BMP_pressure;BME280_temperature;BME280_humidity;BME280_pressure;Samples;Min_cycle;Max_cycle;Signal;HPM_P1;HPM_P2
2021/03/29 00:00:33;;;;;;;8.68;2.03;;;11.30;45.10;;;;;;5055437;28;20025;-74
2021/03/29 00:03:00;;;;;;;13.05;4.78;;;11.20;45.20;;;;;;5055145;28;20020;-73
2021/03/29 00:05:29;;;;;;;9.60;5.47;;;11.20;45.60;;;;;;5054077;28;20517;-74
2021/03/29 00:08:08;;;;;;;10.73;6.68;;;11.20;45.70;;;;;;5055190;28;20033;-73
2021/03/29 00:10:36;;;;;;;6.78;4.82;;;11.20;45.50;;;;;;5055343;28;20025;-73
2021/03/29 00:13:03;;;;;;;4.93;3.53;;;11.20;45.40;;;;;;5055116;28;20496;-74
2021/03/29 00:15:33;;;;;;;7.88;3.00;;;11.20;45.50;;;;;;5055510;28;20028;-74
2021/03/29 00:17:59;;;;;;;2.50;2.17;;;11.30;45.70;;;;;;5055391;28;20064;-75
2021/03/29 00:20:29;;;;;;;6.20;2.50;;;11.30;45.70;;;;;;5055014;28;20052;-73
2021/03/29 00:22:56;;;;;;;4.10;2.50;;;11.30;46.00;;;;;;5055498;28;20545;-72
2021/03/29 00:25:23;;;;;;;5.93;2.53;;;11.30;45.80;;;;;;5055299;28;20025;-73
2021/03/29 00:27:49;;;;;;;5.38;2.78;;;11.40;45.80;;;;;;5054827;28;20021;-74
2021/03/29 00:30:19;;;;;;;6.80;2.25;;;11.40;46.00;;;;;;5054626;28;20052;-74
2021/03/29 00:32:47;;;;;;;7.50;2.45;;;11.40;45.80;;;;;;5055010;28;20378;-74
2021/03/29 00:35:15;;;;;;;3.85;2.05;;;11.40;45.60;;;;;;5054690;28;20059;-74
2021/03/29 00:37:44;;;;;;;8.50;2.80;;;11.50;45.60;;;;;;5054559;28;20025;-74
2021/03/29 00:40:12;;;;;;;7.80;3.17;;;11.50;46.20;;;;;;5054606;28;20028;-75
2021/03/29 00:42:39;;;;;;;4.97;2.67;;;11.50;46.10;;;;;;5054797;28;20021;-74
2021/03/29 00:45:12;;;;;;;4.68;2.50;;;11.60;46.10;;;;;;5055111;28;20025;-75
2021/03/29 00:47:39;;;;;;;4.65;2.47;;;11.60;45.90;;;;;;5056395;28;20538;-74
2021/03/29 00:50:21;;;;;;;4.93;2.15;;;11.60;45.70;;;;;;5054328;28;20073;-74
2021/03/29 00:52:48;;;;;;;3.30;1.75;;;11.60;45.80;;;;;;5053653;28;20386;-73
2021/03/29 00:55:15;;;;;;;4.47;2.28;;;11.70;45.50;;;;;;5054855;28;20425;-72
2021/03/29 00:57:41;;;;;;;4.25;2.08;;;11.70;45.60;;;;;;5056453;28;20039;-74
2021/03/29 01:00:20;;;;;;;5.22;2.20;;;11.70;45.50;;;;;;5084327;28;20001;-75
2021/03/29 01:02:47;;;;;;;5.57;2.30;;;11.70;45.60;;;;;;5081970;28;20019;-72
2021/03/29 01:05:18;;;;;;;5.07;2.10;;;11.70;45.50;;;;;;5080817;28;20377;-74
2021/03/29 01:07:47;;;;;;;6.43;2.55;;;11.70;45.50;;;;;;5078236;28;20066;-74
2021/03/29 01:10:13;;;;;;;4.97;2.13;;;11.70;45.50;;;;;;5074168;28;20024;-75
2021/03/29 01:12:42;;;;;;;5.65;2.40;;;11.70;45.30;;;;;;5074500;28;20030;-73
2021/03/29 01:15:15;;;;;;;6.43;2.33;;;11.70;45.70;;;;;;5073988;28;20437;-73
2021/03/29 01:17:45;;;;;;;3.88;1.92;;;11.70;45.70;;;;;;5073706;28;20020;-74
2021/03/29 01:20:21;;;;;;;8.65;2.33;;;11.70;45.60;;;;;;5073710;28;20111;-73
2021/03/29 01:22:51;;;;;;;4.38;1.98;;;11.70;45.70;;;;;;5073011;28;20029;-72
2021/03/29 01:25:40;;;;;;;9.48;2.70;;;11.70;45.60;;;;;;5073620;28;20025;-73
2021/03/29 01:28:14;;;;;;;7.18;2.92;;;11.70;45.90;;;;;;5073668;28;20077;-73
2021/03/29 01:30:42;;;;;;;6.10;2.63;;;11.70;46.20;;;;;;5073601;28;20017;-73
2021/03/29 01:33:09;;;;;;;5.35;2.20;;;11.70;46.00;;;;;;5073542;28;20386;-74
2021/03/29 01:35:43;;;;;;;8.48;2.42;;;11.70;46.00;;;;;;5073504;28;20032;-73
2021/03/29 01:38:10;;;;;;;6.30;2.10;;;11.70;46.00;;;;;;5073462;28;20027;-73
2021/03/29 01:40:40;;;;;;;6.40;2.67;;;11.70;46.00;;;;;;5073394;28;20074;-73
2021/03/29 01:43:07;;;;;;;7.20;2.85;;;11.70;46.10;;;;;;5073324;28;20381;-74
2021/03/29 01:45:34;;;;;;;9.30;2.42;;;11.70;46.60;;;;;;5072116;28;20028;-73
2021/03/29 01:48:02;;;;;;;4.68;2.40;;;11.70;46.50;;;;;;5073381;28;20377;-73
2021/03/29 01:50:31;;;;;;;5.30;2.40;;;11.70;46.30;;;;;;5073024;28;20076;-74
2021/03/29 01:52:58;;;;;;;8.63;2.50;;;11.70;46.10;;;;;;5073214;28;20040;-72
2021/03/29 01:55:25;;;;;;;5.38;2.05;;;11.70;46.10;;;;;;5073336;28;20028;-73
2021/03/29 01:57:52;;;;;;;10.75;2.85;;;11.70;46.00;;;;;;5069704;28;20021;-72
2021/03/29 02:00:34;;;;;;;11.73;2.92;;;11.70;46.00;;;;;;5053167;28;20047;-73
2021/03/29 02:03:01;;;;;;;11.77;4.63;;;11.70;46.20;;;;;;5053139;28;20049;-73
2021/03/29 02:05:28;;;;;;;9.40;3.85;;;11.70;46.20;;;;;;5053057;28;20108;-74
2021/03/29 02:07:55;;;;;;;8.32;3.30;;;11.70;46.10;;;;;;5053093;28;20028;-74
2021/03/29 02:10:23;;;;;;;6.38;2.97;;;11.70;46.10;;;;;;5051759;28;20027;-73
2021/03/29 02:12:50;;;;;;;6.85;2.83;;;11.70;46.10;;;;;;5053000;28;20029;-73
2021/03/29 02:15:26;;;;;;;7.30;2.50;;;11.70;46.00;;;;;;5053088;28;20167;-72
2021/03/29 02:18:09;;;;;;;6.25;2.45;;;11.80;46.10;;;;;;5052892;28;20151;-73
2021/03/29 02:20:36;;;;;;;4.43;2.50;;;11.80;46.20;;;;;;5052980;28;20027;-74
2021/03/29 02:23:05;;;;;;;4.68;2.30;;;11.80;46.10;;;;;;5055703;28;20504;-72
2021/03/29 02:25:32;;;;;;;7.82;2.92;;;11.80;46.00;;;;;;5056998;28;20028;-73
2021/03/29 02:28:01;;;;;;;9.30;3.05;;;11.80;46.00;;;;;;5056944;28;20082;-74
2021/03/29 02:30:47;;;;;;;3.65;2.22;;;11.80;46.10;;;;;;5056966;28;20021;-73
2021/03/29 02:33:15;;;;;;;7.05;2.70;;;11.80;46.00;;;;;;5056780;28;20104;-73
2021/03/29 02:35:41;;;;;;;4.20;2.22;;;11.80;45.90;;;;;;5056858;28;20079;-73
2021/03/29 02:38:18;;;;;;;5.70;2.38;;;11.80;46.00;;;;;;5056734;28;20017;-73
2021/03/29 02:40:47;;;;;;;5.68;2.63;;;11.80;46.20;;;;;;5056812;28;20023;-73
2021/03/29 02:43:14;;;;;;;5.95;3.15;;;11.90;46.30;;;;;;5056633;28;20025;-73
2021/03/29 02:46:07;;;;;;;5.80;2.33;;;11.90;46.20;;;;;;5056576;28;20025;-73
2021/03/29 02:48:39;;;;;;;5.63;2.75;;;11.90;46.20;;;;;;5056625;28;20021;-73
2021/03/29 02:51:08;;;;;;;7.57;3.28;;;11.90;46.10;;;;;;5056364;28;20044;-74
2021/03/29 02:53:36;;;;;;;6.55;3.22;;;11.90;46.10;;;;;;5056436;28;20479;-73
2021/03/29 02:56:10;;;;;;;7.43;2.80;;;11.90;46.40;;;;;;5055266;28;20470;-73
2021/03/29 02:58:40;;;;;;;6.25;2.72;;;11.90;46.80;;;;;;5056463;28;20537;-73
2021/03/29 03:01:12;;;;;;;7.40;2.92;;;11.90;46.70;;;;;;5056208;28;20025;-75
2021/03/29 03:03:41;;;;;;;9.82;3.53;;;11.90;46.90;;;;;;5056348;28;20029;-73
2021/03/29 03:06:07;;;;;;;6.05;3.05;;;12.00;46.90;;;;;;5056287;28;20028;-73
2021/03/29 03:08:37;;;;;;;7.10;2.75;;;12.00;46.80;;;;;;5054961;28;20017;-73
2021/03/29 03:11:11;;;;;;;7.75;3.42;;;12.00;47.10;;;;;;5056135;28;20021;-73
2021/03/29 03:13:38;;;;;;;8.77;3.15;;;12.00;47.20;;;;;;5054893;28;20029;-73
2021/03/29 03:16:05;;;;;;;4.20;2.72;;;11.90;47.20;;;;;;5055958;28;20028;-73
2021/03/29 03:18:31;;;;;;;5.88;2.92;;;11.90;47.40;;;;;;5054822;28;20482;-73
2021/03/29 03:20:57;;;;;;;7.95;3.20;;;11.90;47.30;;;;;;5055959;28;20039;-74
2021/03/29 03:23:23;;;;;;;7.00;3.45;;;11.90;47.40;;;;;;5056396;28;20021;-74
2021/03/29 03:25:51;;;;;;;10.93;3.63;;;12.00;47.50;;;;;;5056076;28;20013;-73
2021/03/29 03:28:21;;;;;;;8.65;3.75;;;12.00;47.90;;;;;;5055786;28;20024;-74
2021/03/29 03:30:52;;;;;;;8.52;3.58;;;12.00;48.00;;;;;;5055842;28;20033;-73
2021/03/29 03:33:23;;;;;;;7.15;3.10;;;11.90;48.20;;;;;;5055128;28;20057;-73
2021/03/29 03:35:52;;;;;;;9.60;3.72;;;11.90;48.00;;;;;;5055576;28;20031;-72
2021/03/29 03:38:22;;;;;;;6.85;3.78;;;11.90;48.00;;;;;;5054329;28;20029;-73
2021/03/29 03:40:59;;;;;;;8.40;3.15;;;11.80;47.80;;;;;;5054143;28;20032;-73
2021/03/29 03:43:30;;;;;;;6.60;3.10;;;11.80;47.60;;;;;;5055532;28;20017;-74
2021/03/29 03:46:08;;;;;;;7.85;3.05;;;11.80;47.60;;;;;;5055475;28;20099;-73
2021/03/29 03:48:36;;;;;;;8.02;3.80;;;11.70;47.60;;;;;;5055556;28;20052;-74
2021/03/29 03:51:02;;;;;;;8.82;3.72;;;11.70;48.10;;;;;;5055191;28;20053;-74
2021/03/29 03:53:29;;;;;;;7.80;3.58;;;11.60;48.00;;;;;;5055395;28;20064;-73
2021/03/29 03:55:57;;;;;;;7.63;2.67;;;11.60;47.90;;;;;;5055104;28;20036;-74
2021/03/29 03:58:24;;;;;;;10.00;4.00;;;11.60;47.80;;;;;;5053864;28;20581;-72
2021/03/29 04:00:51;;;;;;;9.52;3.38;;;11.60;47.90;;;;;;5054906;28;20025;-72
2021/03/29 04:03:17;;;;;;;8.55;3.80;;;11.50;47.80;;;;;;5053744;28;20021;-73
2021/03/29 04:05:43;;;;;;;5.80;3.10;;;11.50;48.30;;;;;;5055004;28;20028;-73
2021/03/29 04:08:10;;;;;;;15.95;4.03;;;11.50;48.30;;;;;;5054923;28;20026;-73
2021/03/29 04:10:48;;;;;;;7.82;3.38;;;11.50;49.00;;;;;;5054860;28;20028;-73
2021/03/29 04:13:36;;;;;;;10.75;3.63;;;11.50;49.30;;;;;;5054975;28;20028;-72
2021/03/29 04:16:07;;;;;;;9.82;3.35;;;11.50;49.20;;;;;;5054964;28;20037;-72
2021/03/29 04:18:34;;;;;;;7.28;3.38;;;11.40;49.10;;;;;;5054863;28;20390;-74
2021/03/29 04:21:00;;;;;;;14.02;3.55;;;11.40;48.90;;;;;;5054666;28;20114;-73
2021/03/29 04:23:28;;;;;;;9.65;3.58;;;11.40;49.10;;;;;;5054726;28;20031;-73
2021/03/29 04:25:55;;;;;;;10.07;3.95;;;11.40;49.00;;;;;;5054704;28;20463;-73
2021/03/29 04:28:21;;;;;;;16.83;5.13;;;11.40;49.40;;;;;;5054654;28;20033;-73
2021/03/29 04:30:48;;;;;;;18.45;5.63;;;11.40;49.50;;;;;;5054789;28;20032;-73
2021/03/29 04:33:14;;;;;;;24.30;6.15;;;11.30;49.60;;;;;;5053217;28;20108;-73
2021/03/29 04:35:41;;;;;;;21.33;5.05;;;11.30;49.50;;;;;;5054328;28;20443;-74
2021/03/29 04:38:06;;;;;;;22.58;5.45;;;11.30;49.70;;;;;;5054485;28;20466;-73
2021/03/29 04:40:33;;;;;;;14.40;4.55;;;11.30;50.10;;;;;;5054389;28;20079;-73
2021/03/29 04:42:59;;;;;;;13.98;4.65;;;11.20;49.70;;;;;;5054303;28;20100;-73
2021/03/29 04:45:25;;;;;;;19.27;4.78;;;11.20;49.80;;;;;;5054230;28;20096;-72
2021/03/29 04:47:51;;;;;;;7.50;4.32;;;11.10;49.70;;;;;;5054213;28;20028;-74
2021/03/29 04:50:19;;;;;;;7.90;3.00;;;11.10;49.70;;;;;;5052770;28;20041;-74
2021/03/29 04:52:45;;;;;;;12.88;3.75;;;11.10;49.70;;;;;;5054178;28;20414;-72
2021/03/29 04:55:12;;;;;;;17.23;3.40;;;11.10;49.70;;;;;;5054176;28;20021;-73
2021/03/29 04:57:38;;;;;;;9.25;3.63;;;11.10;49.90;;;;;;5054544;28;20056;-74
2021/03/29 05:00:06;;;;;;;12.93;3.80;;;11.10;50.00;;;;;;5052677;28;20033;-73
2021/03/29 05:02:32;;;;;;;11.27;3.70;;;11.10;50.00;;;;;;5053821;28;20017;-73
2021/03/29 05:04:58;;;;;;;15.63;4.22;;;11.00;49.90;;;;;;5054132;28;20036;-72
2021/03/29 05:07:24;;;;;;;11.80;3.97;;;11.00;50.00;;;;;;5054259;28;20021;-74
2021/03/29 05:09:50;;;;;;;8.48;3.65;;;11.00;50.00;;;;;;5052672;28;20517;-73
2021/03/29 05:12:18;;;;;;;6.13;2.97;;;11.00;50.00;;;;;;5053919;28;20028;-73
2021/03/29 05:14:44;;;;;;;15.73;4.50;;;11.00;49.90;;;;;;5053586;28;20104;-73
2021/03/29 05:17:12;;;;;;;13.90;4.00;;;11.00;50.50;;;;;;5053712;28;20445;-73
2021/03/29 05:19:39;;;;;;;15.90;4.97;;;11.00;50.70;;;;;;5053575;28;20031;-74
2021/03/29 05:22:07;;;;;;;18.70;4.45;;;10.90;50.80;;;;;;5053646;28;20025;-74
2021/03/29 05:24:33;;;;;;;13.75;4.38;;;10.90;50.90;;;;;;5053776;28;20025;-73
2021/03/29 05:27:00;;;;;;;10.75;4.32;;;10.80;50.90;;;;;;5053704;28;20045;-73
2021/03/29 05:29:28;;;;;;;19.25;4.78;;;10.90;50.80;;;;;;5053452;28;20074;-74
2021/03/29 05:31:55;;;;;;;11.88;3.70;;;10.80;50.80;;;;;;5053323;28;20032;-73
2021/03/29 05:34:21;;;;;;;16.13;4.25;;;10.90;50.70;;;;;;5053400;28;20032;-73
2021/03/29 05:36:47;;;;;;;10.48;3.92;;;10.80;50.80;;;;;;5053342;28;20106;-72
2021/03/29 05:39:13;;;;;;;12.30;4.72;;;10.90;50.70;;;;;;5053560;28;20466;-73
2021/03/29 05:41:40;;;;;;;10.10;4.68;;;10.80;50.70;;;;;;5053237;28;20032;-74
2021/03/29 05:44:10;;;;;;;12.25;4.38;;;10.90;50.60;;;;;;5053172;28;20060;-72
2021/03/29 05:46:40;;;;;;;13.55;4.40;;;10.90;50.70;;;;;;5051970;28;20544;-73
2021/03/29 05:49:07;;;;;;;17.83;5.28;;;10.90;50.70;;;;;;5051933;28;20043;-73
2021/03/29 05:51:39;;;;;;;18.95;5.53;;;10.90;50.80;;;;;;5052915;28;20053;-73
2021/03/29 05:54:08;;;;;;;9.88;5.15;;;10.90;51.10;;;;;;5051904;28;20081;-72
2021/03/29 05:56:35;;;;;;;11.38;4.78;;;11.00;51.10;;;;;;5052541;28;20086;-72
2021/03/29 05:59:13;;;;;;;13.02;4.97;;;11.00;51.00;;;;;;5052875;28;20048;-73
2021/03/29 06:01:47;;;;;;;13.05;5.43;;;11.00;51.10;;;;;;5052985;28;20481;-72
2021/03/29 06:04:14;;;;;;;14.30;5.57;;;10.90;51.30;;;;;;5053078;28;20048;-73
2021/03/29 06:06:41;;;;;;;14.65;5.35;;;11.00;51.30;;;;;;5053133;28;20025;-72
2021/03/29 06:09:08;;;;;;;12.43;4.63;;;10.90;51.50;;;;;;5052920;28;20096;-74
2021/03/29 06:11:40;;;;;;;11.40;4.80;;;10.90;51.50;;;;;;5052886;28;20105;-73
2021/03/29 06:14:07;;;;;;;11.55;4.63;;;10.90;51.70;;;;;;5052905;28;20048;-73
2021/03/29 06:16:54;;;;;;;10.82;4.70;;;10.90;51.70;;;;;;5052881;28;20024;-74
2021/03/29 06:19:58;;;;;;;14.90;4.78;;;10.90;51.60;;;;;;5053009;28;20103;-74
2021/03/29 06:22:28;;;;;;;12.52;4.75;;;10.90;51.70;;;;;;5051541;28;20078;-73
2021/03/29 06:24:59;;;;;;;13.63;5.13;;;11.00;51.80;;;;;;5052900;28;20523;-73
2021/03/29 06:27:30;;;;;;;16.60;4.53;;;11.00;51.70;;;;;;5052684;28;20025;-72
2021/03/29 06:30:30;;;;;;;12.68;4.35;;;11.10;51.70;;;;;;5053299;28;20467;-72
2021/03/29 06:33:13;;;;;;;11.00;4.65;;;11.10;51.60;;;;;;5052689;28;20386;-74
2021/03/29 06:35:45;;;;;;;16.48;5.32;;;11.20;51.50;;;;;;5052762;28;20045;-73
2021/03/29 06:38:14;;;;;;;11.32;4.38;;;11.30;51.40;;;;;;5052907;28;20017;-74
2021/03/29 06:41:03;;;;;;;12.30;4.95;;;11.30;51.10;;;;;;5052607;28;20360;-72
2021/03/29 06:43:35;;;;;;;10.88;4.53;;;11.30;51.00;;;;;;5052631;28;20027;-72
2021/03/29 06:46:20;;;;;;;8.50;4.13;;;11.40;50.90;;;;;;5051514;28;20104;-72
2021/03/29 06:48:46;;;;;;;18.35;5.25;;;11.40;50.80;;;;;;5052645;28;20021;-73
2021/03/29 06:51:16;;;;;;;13.00;4.78;;;11.50;50.70;;;;;;5052405;28;20128;-74
2021/03/29 06:53:55;;;;;;;9.15;4.50;;;11.50;50.70;;;;;;5052459;28;20032;-73
2021/03/29 06:56:20;;;;;;;9.23;4.28;;;11.60;50.60;;;;;;5051140;28;20025;-73
2021/03/29 06:58:48;;;;;;;14.25;5.25;;;11.60;50.40;;;;;;5052534;28;20540;-73
2021/03/29 07:01:24;;;;;;;13.93;4.80;;;11.70;50.50;;;;;;5050900;28;20042;-74
2021/03/29 07:03:52;;;;;;;10.63;4.18;;;11.70;50.40;;;;;;5052389;28;20108;-74
2021/03/29 07:06:30;;;;;;;10.40;4.30;;;11.80;50.30;;;;;;5051179;28;20021;-73
2021/03/29 07:09:07;;;;;;;9.50;4.57;;;11.80;50.30;;;;;;5055980;28;20025;-73
2021/03/29 07:11:35;;;;;;;19.13;4.80;;;11.80;50.20;;;;;;5056030;28;20031;-74
2021/03/29 07:14:03;;;;;;;11.23;4.40;;;11.90;50.10;;;;;;5054896;28;20032;-74
2021/03/29 07:16:29;;;;;;;17.73;4.88;;;11.90;50.00;;;;;;5056151;28;20025;-74
2021/03/29 07:19:00;;;;;;;11.70;4.60;;;12.00;49.80;;;;;;5056026;28;20032;-74
2021/03/29 07:21:26;;;;;;;10.35;4.65;;;12.10;49.60;;;;;;5055990;28;20025;-74
2021/03/29 07:23:53;;;;;;;11.50;4.10;;;12.10;49.20;;;;;;5055884;28;20017;-72
2021/03/29 07:26:33;;;;;;;10.55;4.45;;;12.20;49.10;;;;;;5056020;28;20139;-74
2021/03/29 07:29:17;;;;;;;14.02;4.55;;;12.20;48.90;;;;;;5055617;28;20017;-72
2021/03/29 07:31:43;;;;;;;;;;;12.30;48.50;;;;;;5056050;28;20048;-73
2021/03/29 07:34:10;;;;;;;7.50;3.90;;;12.40;48.60;;;;;;5054446;28;19912;-73
2021/03/29 07:36:50;;;;;;;10.57;5.20;;;12.40;48.30;;;;;;5055596;28;20021;-75
2021/03/29 07:39:22;;;;;;;13.65;5.15;;;12.40;48.30;;;;;;5054298;28;20025;-75
2021/03/29 07:42:23;;;;;;;9.63;4.93;;;12.40;48.10;;;;;;5054073;28;20028;-73
2021/03/29 07:44:55;;;;;;;12.00;4.95;;;12.40;48.70;;;;;;5055234;28;20083;-75
2021/03/29 07:47:40;;;;;;;13.52;4.60;;;12.40;47.90;;;;;;5054342;28;20117;-73
2021/03/29 07:50:09;;;;;;;15.20;4.95;;;12.50;48.10;;;;;;5055500;28;20104;-73
2021/03/29 07:52:42;;;;;;;10.73;4.85;;;12.50;48.10;;;;;;5055468;28;20056;-72
2021/03/29 07:55:24;;;;;;;8.68;3.78;;;12.60;47.90;;;;;;5055439;28;20059;-73
2021/03/29 07:57:50;;;;;;;10.73;4.40;;;12.60;47.70;;;;;;5055347;28;20036;-74
2021/03/29 08:00:25;;;;;;;11.20;4.07;;;12.70;47.70;;;;;;5058129;28;20028;-75
2021/03/29 08:02:57;;;;;;;15.18;6.00;;;12.80;47.30;;;;;;5064492;28;20025;-73
2021/03/29 08:05:35;;;;;;;13.00;4.82;;;12.90;47.20;;;;;;5072444;28;20028;-74
2021/03/29 08:08:05;;;;;;;6.82;3.50;;;13.00;47.20;;;;;;5070220;28;20025;-75
2021/03/29 08:10:59;;;;;;;9.23;3.28;;;13.20;46.90;;;;;;5073453;28;20074;-73
2021/03/29 08:13:36;;;;;;;14.05;4.35;;;13.30;46.70;;;;;;5068473;28;20028;-74
2021/03/29 08:16:04;;;;;;;10.18;3.65;;;13.50;46.10;;;;;;5053717;28;20033;-73
2021/03/29 08:19:09;;;;;;;19.13;3.40;;;13.70;46.30;;;;;;5064916;28;20021;-75
2021/03/29 08:21:47;;;;;;;8.00;3.00;;;13.80;45.40;;;;;;5054105;28;20025;-72
2021/03/29 08:24:34;;;;;;;6.35;2.92;;;14.00;44.90;;;;;;5053888;28;20043;-75
2021/03/29 08:27:00;;;;;;;7.35;3.63;;;14.20;44.70;;;;;;5057516;28;20067;-74
2021/03/29 08:29:38;;;;;;;6.55;3.30;;;14.40;43.70;;;;;;5052346;28;20033;-75
2021/03/29 08:32:15;;;;;;;10.20;3.72;;;14.60;43.60;;;;;;5053408;28;20021;-74
2021/03/29 08:35:01;;;;;;;9.55;3.50;;;14.90;42.60;;;;;;5053948;28;20080;-75
2021/03/29 08:37:36;;;;;;;12.75;4.45;;;15.10;42.90;;;;;;5058673;28;20533;-73
2021/03/29 08:40:27;;;;;;;21.02;4.35;;;15.40;42.50;;;;;;5072219;28;20132;-74
2021/03/29 08:43:01;;;;;;;9.80;3.75;;;15.70;42.00;;;;;;5055175;28;20040;-74
2021/03/29 08:45:28;;;;;;;16.02;3.90;;;16.00;41.60;;;;;;5054264;28;20025;-73
2021/03/29 08:47:58;;;;;;;7.38;3.17;;;16.20;41.00;;;;;;5054224;28;20449;-73
2021/03/29 08:50:30;;;;;;;8.80;3.60;;;16.40;40.50;;;;;;5054041;28;20044;-74
2021/03/29 08:53:04;;;;;;;8.38;3.30;;;16.60;40.60;;;;;;5054080;28;20079;-74
2021/03/29 08:55:35;;;;;;;9.18;3.17;;;16.80;40.00;;;;;;5054318;28;20471;-74
2021/03/29 08:58:01;;;;;;;8.48;3.67;;;16.90;38.90;;;;;;5054134;28;20046;-73
2021/03/29 09:00:30;;;;;;;6.30;3.08;;;17.00;39.40;;;;;;5052649;28;20029;-73
2021/03/29 09:02:56;;;;;;;8.30;3.30;;;17.20;39.00;;;;;;5052688;28;20052;-73
2021/03/29 09:05:26;;;;;;;7.15;2.92;;;17.30;39.00;;;;;;5053962;28;20028;-74
2021/03/29 09:07:53;;;;;;;10.80;3.80;;;17.40;38.60;;;;;;5053998;28;20027;-73
2021/03/29 09:10:34;;;;;;;4.80;2.85;;;17.60;38.20;;;;;;5052708;28;20028;-74
2021/03/29 09:13:10;;;;;;;17.08;3.95;;;17.70;37.60;;;;;;5053973;28;20029;-74
2021/03/29 09:15:38;;;;;;;10.52;3.70;;;17.80;37.90;;;;;;5053981;28;20466;-74
2021/03/29 09:18:12;;;;;;;9.05;3.03;;;17.90;37.10;;;;;;5053477;28;20521;-74
2021/03/29 09:20:42;;;;;;;10.87;3.90;;;18.00;36.80;;;;;;5052362;28;20025;-74
2021/03/29 09:23:12;;;;;;;7.30;3.28;;;18.10;36.10;;;;;;5053626;28;20095;-76
2021/03/29 09:25:47;;;;;;;9.85;3.10;;;18.20;35.50;;;;;;5053730;28;20048;-74
2021/03/29 09:28:33;;;;;;;8.00;4.15;;;18.30;36.00;;;;;;5052459;28;20025;-73
2021/03/29 09:31:12;;;;;;;7.50;3.50;;;18.40;35.20;;;;;;5051320;28;20032;-74
2021/03/29 09:33:43;;;;;;;8.95;3.70;;;18.60;35.70;;;;;;5053371;28;20020;-73
2021/03/29 09:36:12;;;;;;;9.05;3.63;;;18.70;34.60;;;;;;5052310;28;20029;-73
2021/03/29 09:38:48;;;;;;;12.75;3.28;;;18.80;34.40;;;;;;5053351;28;20029;-73
2021/03/29 09:41:19;;;;;;;5.72;3.10;;;18.90;34.70;;;;;;5053238;28;20025;-73
2021/03/29 09:43:47;;;;;;;7.65;3.63;;;19.00;34.30;;;;;;5053384;28;20032;-74
2021/03/29 09:46:13;;;;;;;6.22;3.35;;;19.10;34.60;;;;;;5053141;28;20391;-74
2021/03/29 09:48:39;;;;;;;9.27;3.10;;;19.20;34.10;;;;;;5053274;28;20028;-74
2021/03/29 09:51:19;;;;;;;7.18;3.70;;;19.30;34.30;;;;;;5051724;28;20045;-74
2021/03/29 09:53:45;;;;;;;11.70;3.95;;;19.40;33.90;;;;;;5053205;28;20025;-74
2021/03/29 09:56:11;;;;;;;8.77;4.07;;;19.50;33.50;;;;;;5053219;28;20655;-73
2021/03/29 09:58:47;;;;;;;10.02;3.45;;;19.50;32.80;;;;;;5051877;28;20474;-74
2021/03/29 10:01:18;;;;;;;12.43;3.30;;;19.60;33.30;;;;;;5051652;28;20021;-74
2021/03/29 10:03:55;;;;;;;7.68;3.33;;;19.50;32.40;;;;;;5053164;28;20151;-73
2021/03/29 10:06:23;;;;;;;9.85;3.90;;;19.40;32.60;;;;;;5053095;28;20535;-74
2021/03/29 10:09:15;;;;;;;5.20;2.63;;;19.40;32.90;;;;;;5051768;28;20036;-74
2021/03/29 10:11:50;;;;;;;7.70;3.08;;;19.40;33.10;;;;;;5052596;28;20037;-74
2021/03/29 10:14:18;;;;;;;9.02;3.40;;;19.40;32.90;;;;;;5052775;28;20025;-73
2021/03/29 10:16:48;;;;;;;10.35;2.90;;;19.30;31.90;;;;;;5052748;28;20021;-73
2021/03/29 10:19:16;;;;;;;7.07;3.03;;;19.10;31.80;;;;;;5052757;28;20029;-74
2021/03/29 10:22:14;;;;;;;8.88;2.80;;;19.10;31.90;;;;;;5051575;28;20035;-74
2021/03/29 10:25:11;;;;;;;6.53;2.83;;;18.90;32.40;;;;;;5052983;28;20021;-74
2021/03/29 10:27:54;;;;;;;6.35;2.95;;;18.80;32.50;;;;;;5052944;28;20025;-74
2021/03/29 10:30:27;;;;;;;5.95;2.20;;;18.80;32.80;;;;;;5051766;28;20055;-74
2021/03/29 10:33:02;;;;;;;7.10;2.92;;;18.70;33.10;;;;;;5052716;28;20044;-74
2021/03/29 10:35:30;;;;;;;8.00;2.63;;;18.70;33.00;;;;;;5052938;28;20104;-73
2021/03/29 10:38:03;;;;;;;8.00;2.60;;;18.60;33.20;;;;;;5053030;28;20025;-74
2021/03/29 10:40:29;;;;;;;9.32;3.30;;;18.60;33.50;;;;;;5051298;28;20029;-73
2021/03/29 10:42:55;;;;;;;5.10;2.58;;;18.60;32.60;;;;;;5054752;28;20017;-73
2021/03/29 10:45:21;;;;;;;8.23;2.58;;;18.60;33.20;;;;;;5056594;28;20023;-74
2021/03/29 10:47:47;;;;;;;6.22;2.47;;;18.50;32.70;;;;;;5056470;28;20028;-74
2021/03/29 10:50:16;;;;;;;8.40;2.25;;;18.60;33.00;;;;;;5056672;28;20041;-73
2021/03/29 10:52:42;;;;;;;7.82;3.05;;;18.60;32.90;;;;;;5056593;28;20029;-74
2021/03/29 10:55:09;;;;;;;7.55;2.65;;;18.70;33.00;;;;;;5056483;28;20029;-74
2021/03/29 10:57:35;;;;;;;10.93;2.80;;;18.80;32.90;;;;;;5055250;28;20021;-74
2021/03/29 11:00:01;;;;;;;15.48;3.08;;;18.90;32.70;;;;;;5055017;28;20493;-74
2021/03/29 11:02:29;;;;;;;8.20;2.83;;;19.00;32.60;;;;;;5055089;28;20040;-74
2021/03/29 11:04:55;;;;;;;7.35;2.58;;;19.20;32.00;;;;;;5056375;28;20021;-74
2021/03/29 11:07:21;;;;;;;7.10;2.65;;;19.30;32.40;;;;;;5054899;28;20029;-74
2021/03/29 11:09:47;;;;;;;5.93;2.45;;;19.40;31.40;;;;;;5056091;28;20017;-72
2021/03/29 11:12:13;;;;;;;7.47;2.30;;;19.50;31.20;;;;;;5056352;28;20029;-74
2021/03/29 11:14:38;;;;;;;5.63;2.13;;;19.60;31.20;;;;;;5056113;28;20031;-72
2021/03/29 11:17:05;;;;;;;7.55;2.45;;;19.70;31.50;;;;;;5056123;28;20103;-72
2021/03/29 11:19:30;;;;;;;4.95;2.10;;;19.80;31.40;;;;;;5056266;28;20474;-74
2021/03/29 11:21:56;;;;;;;7.88;2.08;;;19.90;31.10;;;;;;5054666;28;20025;-72
2021/03/29 11:24:23;;;;;;;6.20;2.05;;;20.00;29.80;;;;;;5055885;28;20055;-72
2021/03/29 11:26:49;;;;;;;8.52;2.70;;;20.00;29.70;;;;;;5059351;28;20101;-73
2021/03/29 11:29:15;;;;;;;9.93;2.58;;;20.10;28.80;;;;;;5073378;28;20017;-74
2021/03/29 11:31:42;;;;;;;6.00;2.10;;;20.10;28.50;;;;;;5076731;28;20040;-73
2021/03/29 11:34:09;;;;;;;8.05;2.50;;;20.10;29.00;;;;;;5079944;28;20028;-72
2021/03/29 11:36:35;;;;;;;9.15;3.03;;;20.00;28.20;;;;;;5079921;28;20047;-72
2021/03/29 11:39:03;;;;;;;5.35;2.10;;;20.00;28.10;;;;;;5079455;28;20052;-73
2021/03/29 11:41:29;;;;;;;8.75;2.63;;;20.00;28.30;;;;;;5079324;28;20043;-72
2021/03/29 11:43:55;;;;;;;5.65;2.38;;;19.90;28.30;;;;;;5079976;28;20005;-72
2021/03/29 11:46:21;;;;;;;10.38;3.13;;;19.90;28.60;;;;;;5079258;28;20059;-73
2021/03/29 11:48:47;;;;;;;6.72;2.60;;;20.00;28.50;;;;;;5080043;28;20009;-74
2021/03/29 11:51:12;;;;;;;6.65;2.63;;;20.00;27.60;;;;;;5079441;28;20060;-73
2021/03/29 11:53:38;;;;;;;9.10;2.30;;;20.00;27.90;;;;;;5079326;28;20080;-73
2021/03/29 11:56:06;;;;;;;5.35;2.80;;;20.10;27.90;;;;;;5079949;28;20088;-74
2021/03/29 11:58:31;;;;;;;9.82;2.92;;;20.10;27.80;;;;;;5080191;28;20092;-73
2021/03/29 12:01:08;;;;;;;9.15;3.17;;;20.10;27.70;;;;;;5080189;28;20113;-73
2021/03/29 12:03:43;;;;;;;6.35;2.53;;;20.20;27.70;;;;;;5080290;28;20032;-73
2021/03/29 12:06:14;;;;;;;5.55;2.88;;;20.30;27.70;;;;;;5078926;28;20020;-72
2021/03/29 12:08:48;;;;;;;9.13;3.40;;;20.40;27.80;;;;;;5080339;28;20033;-73
2021/03/29 12:13:58;;;;;;;7.95;3.15;;;20.40;27.40;;;;;;5061327;28;20063;-73
2021/03/29 12:16:26;;;;;;;6.20;2.40;;;20.50;27.70;;;;;;5056186;28;20386;-73
2021/03/29 12:18:57;;;;;;;8.27;3.00;;;20.50;27.10;;;;;;5061831;28;20012;-73
2021/03/29 12:21:32;;;;;;;6.25;2.88;;;20.60;26.80;;;;;;5073684;28;20025;-73
2021/03/29 12:24:00;;;;;;;11.90;3.70;;;20.50;26.50;;;;;;5062280;28;20032;-73
2021/03/29 12:26:27;;;;;;;7.35;2.65;;;20.50;26.20;;;;;;5053861;28;20104;-73
2021/03/29 12:28:54;;;;;;;7.80;2.78;;;20.60;26.60;;;;;;5053600;28;20029;-73
2021/03/29 12:31:20;;;;;;;8.18;3.13;;;20.70;26.90;;;;;;5055098;28;20074;-73
2021/03/29 12:33:49;;;;;;;5.25;2.80;;;20.70;26.60;;;;;;5056376;28;20025;-74
2021/03/29 12:36:15;;;;;;;6.72;3.20;;;20.70;26.10;;;;;;5063547;28;20025;-73
2021/03/29 12:38:47;;;;;;;9.75;2.92;;;20.70;26.50;;;;;;5060682;28;20150;-73
2021/03/29 12:41:14;;;;;;;4.65;2.78;;;20.80;26.10;;;;;;5069189;28;20029;-73
2021/03/29 12:43:50;;;;;;;5.45;2.42;;;20.90;27.20;;;;;;5059022;28;20075;-74
2021/03/29 12:46:18;;;;;;;5.85;2.70;;;21.10;26.50;;;;;;5054683;28;20044;-73
2021/03/29 12:48:45;;;;;;;9.27;3.03;;;21.30;26.40;;;;;;5053409;28;20025;-74
2021/03/29 12:51:13;;;;;;;7.05;2.78;;;21.60;26.50;;;;;;5061048;28;20091;-73
2021/03/29 12:53:39;;;;;;;9.05;2.83;;;21.80;25.70;;;;;;5057916;28;20086;-74
2021/03/29 12:56:05;;;;;;;5.78;2.47;;;22.00;24.60;;;;;;5072017;28;20033;-73
2021/03/29 12:58:38;;;;;;;7.13;2.80;;;22.10;24.30;;;;;;5074158;28;20028;-73
2021/03/29 13:01:09;;;;;;;8.43;2.45;;;22.30;24.50;;;;;;5069943;28;20024;-73
2021/03/29 13:03:44;;;;;;;4.13;2.22;;;22.40;24.30;;;;;;5061907;28;20042;-73